createdAt,value
2023-01-29T00:01:45.653Z,50.28
2023-01-29T00:06:47.411Z,51.32
2023-01-29T00:11:49.392Z,51.68
2023-01-29T00:16:51.046Z,49.11
2023-01-29T00:21:52.827Z,52.04
2023-01-29T00:26:54.597Z,52.08
2023-01-29T00:31:56.320Z,52.28
2023-01-29T00:37:04.839Z,50.88
2023-01-29T00:42:25.331Z,52.07
2023-01-29T00:47:36.591Z,50.67
2023-01-29T00:52:40.882Z,51.05
2023-01-29T00:57:42.641Z,51.33
2023-01-29T01:03:02.892Z,51.04
2023-01-29T01:08:24.869Z,50.89
2023-01-29T01:13:26.578Z,51.86
2023-01-29T01:18:31.562Z,49.90
2023-01-29T01:23:33.676Z,51.09
2023-01-29T01:28:35.854Z,50.54
2023-01-29T01:33:38.310Z,49.88
2023-01-29T01:38:44.682Z,49.96
2023-01-29T01:43:50.923Z,50.03
2023-01-29T01:49:01.571Z,51.25
2023-01-29T01:54:19.994Z,50.14
2023-01-29T01:59:22.997Z,50.85
2023-01-29T02:04:45.151Z,52.10
2023-01-29T02:10:03.929Z,50.38
2023-01-29T02:15:06.789Z,49.48
2023-01-29T02:20:24.431Z,51.04
2023-01-29T02:26:00.157Z,50.27
2023-01-29T02:31:11.103Z,51.97
2023-01-29T02:36:41.629Z,50.90
2023-01-29T02:42:13.496Z,51.44
2023-01-29T02:47:23.127Z,50.61
2023-01-29T02:52:44.721Z,49.54
2023-01-29T02:57:49.069Z,50.82
2023-01-29T03:03:16.610Z,49.16
2023-01-29T03:08:36.781Z,48.72
2023-01-29T03:13:56.195Z,48.99
2023-01-29T03:19:06.184Z,49.12
2023-01-29T03:24:29.890Z,49.07
2023-01-29T03:29:53.769Z,49.73
2023-01-29T03:35:02.735Z,48.46
2023-01-29T03:40:07.059Z,51.02
2023-01-29T03:45:24.739Z,51.75
2023-01-29T03:50:26.365Z,50.34
2023-01-29T03:55:34.614Z,50.25
2023-01-29T04:00:41.837Z,50.02
2023-01-29T04:05:58.707Z,49.04
2023-01-29T04:11:06.074Z,49.80
2023-01-29T04:16:13.265Z,49.82
2023-01-29T04:21:16.258Z,50.96
2023-01-29T04:26:53.531Z,50.35
2023-01-29T04:32:03.983Z,51.29
2023-01-29T04:37:19.323Z,52.07
2023-01-29T04:42:32.486Z,52.43
2023-01-29T04:47:44.480Z,53.57
2023-01-29T04:53:12.078Z,53.42
2023-01-29T04:58:22.797Z,54.02
2023-01-29T05:03:27.354Z,53.67
2023-01-29T05:08:31.384Z,52.67
2023-01-29T05:13:39.259Z,51.98
2023-01-29T05:18:41.537Z,52.23
2023-01-29T05:23:53.217Z,51.20
2023-01-29T05:28:56.222Z,50.30
2023-01-29T05:33:58.262Z,50.47
2023-01-29T05:38:59.920Z,48.48
2023-01-29T05:44:01.651Z,50.74
2023-01-29T05:49:03.985Z,49.45
2023-01-29T05:54:06.315Z,51.58
2023-01-29T05:59:08.843Z,51.76
2023-01-29T06:04:10.622Z,51.33
2023-01-29T06:09:12.376Z,52.74
2023-01-29T06:14:14.143Z,53.97
2023-01-29T06:19:15.830Z,53.06
2023-01-29T06:24:17.653Z,53.86
2023-01-29T06:29:19.404Z,53.83
2023-01-29T06:34:21.162Z,52.88
2023-01-29T06:39:22.887Z,53.05
2023-01-29T06:44:24.578Z,53.13
2023-01-29T06:49:26.311Z,52.47
2023-01-29T06:54:27.918Z,52.58
2023-01-29T06:59:29.591Z,54.63
2023-01-29T07:04:31.246Z,55.52
2023-01-29T07:09:33.032Z,55.44
2023-01-29T07:14:34.725Z,55.44
2023-01-29T07:19:36.328Z,54.53
2023-01-29T07:24:38.035Z,54.74
2023-01-29T07:29:39.824Z,53.78
2023-01-29T07:34:41.500Z,54.35
2023-01-29T07:39:43.449Z,54.77
2023-01-29T07:44:45.056Z,54.21
2023-01-29T07:49:46.753Z,55.08
2023-01-29T07:54:48.416Z,55.29
2023-01-29T07:59:50.102Z,55.13
2023-01-29T08:04:51.835Z,54.55
2023-01-29T08:09:53.552Z,54.63
2023-01-29T08:14:55.209Z,53.09
2023-01-29T08:19:56.923Z,54.44
2023-01-29T08:25:06.321Z,54.54
2023-01-29T08:30:11.192Z,52.29
2023-01-29T08:35:12.888Z,53.52
2023-01-29T08:40:14.729Z,53.53
2023-01-29T08:45:17.046Z,52.72
2023-01-29T11:06:30.075Z,48.92
2023-01-29T11:11:31.603Z,48.60
2023-01-29T11:16:45.657Z,48.81
2023-01-29T11:21:52.182Z,48.09
2023-01-29T11:26:59.485Z,49.79
2023-01-29T11:32:35.974Z,50.09
2023-01-29T11:37:40.008Z,48.34
2023-01-29T11:42:41.771Z,48.82
2023-01-29T11:47:50.581Z,48.29
2023-01-29T11:52:52.899Z,48.98
2023-01-29T11:58:01.828Z,48.89
2023-01-29T12:03:13.569Z,48.80
2023-01-29T12:08:18.350Z,48.20
2023-01-29T12:13:27.178Z,49.47
2023-01-29T12:18:55.056Z,48.90
2023-01-29T12:24:11.803Z,50.27
2023-01-29T12:29:56.453Z,48.83
2023-01-29T12:35:03.424Z,49.88
2023-01-29T12:40:27.328Z,48.71
2023-01-29T12:45:30.826Z,48.39
2023-01-29T12:50:35.295Z,49.27
2023-01-29T12:55:39.709Z,48.69
2023-01-29T13:00:45.886Z,49.28
2023-01-29T13:05:56.345Z,49.57
2023-01-29T13:11:02.604Z,48.97
2023-01-29T13:16:10.216Z,48.57
2023-01-29T13:21:16.740Z,49.07
2023-01-29T13:26:20.030Z,48.98
2023-01-29T13:31:30.212Z,49.10
2023-01-29T13:36:32.319Z,48.48
2023-01-29T13:41:41.703Z,48.70
2023-01-29T13:46:50.041Z,48.36
2023-01-29T13:51:51.917Z,48.64
2023-01-29T13:56:56.301Z,48.42
2023-01-29T14:02:03.867Z,48.75
2023-01-29T14:07:43.483Z,49.29
2023-01-29T14:12:45.699Z,48.16
2023-01-29T14:17:59.834Z,47.67
2023-01-29T14:23:04.177Z,48.48
2023-01-29T14:28:16.043Z,50.44
2023-01-29T14:33:38.095Z,48.01
2023-01-29T14:38:46.371Z,48.41
2023-01-29T14:43:48.024Z,48.30
2023-01-29T14:48:49.772Z,49.38
2023-01-29T14:54:20.913Z,49.09
2023-01-29T14:59:29.885Z,48.69
2023-01-29T15:04:50.661Z,48.99
2023-01-29T15:10:22.256Z,48.87
2023-01-29T15:15:24.872Z,49.04
2023-01-29T15:20:32.253Z,49.25
2023-01-29T15:25:49.743Z,49.25
2023-01-29T15:30:56.171Z,48.75
2023-01-29T15:36:07.661Z,48.56
2023-01-29T15:41:20.603Z,48.71
2023-01-29T15:46:29.699Z,49.26
2023-01-29T15:51:31.680Z,48.73
2023-01-29T15:56:38.768Z,48.60
2023-01-29T16:01:40.380Z,49.76
2023-01-29T16:06:43.776Z,49.83
2023-01-29T16:11:47.195Z,49.69
2023-01-29T16:16:49.228Z,50.06
2023-01-29T16:21:58.921Z,49.17
2023-01-29T16:27:08.358Z,50.00
2023-01-29T16:32:13.819Z,50.02
2023-01-29T16:37:23.231Z,50.44
2023-01-29T16:42:31.554Z,50.59
2023-01-29T16:47:41.876Z,51.47
2023-01-29T16:53:12.574Z,51.99
2023-01-29T16:58:24.566Z,52.85
2023-01-29T17:03:28.732Z,51.37
2023-01-29T17:08:33.929Z,51.19
2023-01-29T17:13:42.782Z,50.03
2023-01-29T17:18:44.394Z,51.09
2023-01-29T17:23:46.050Z,51.34
2023-01-29T17:28:50.276Z,51.45
2023-01-29T17:33:51.907Z,51.61
2023-01-29T17:38:53.527Z,51.61
2023-01-29T17:43:55.179Z,51.79
2023-01-29T17:48:56.824Z,51.98
2023-01-29T17:53:58.641Z,52.86
2023-01-29T17:59:00.955Z,52.11
2023-01-29T18:04:02.590Z,51.99
2023-01-29T18:09:04.672Z,52.19
2023-01-29T18:14:13.918Z,52.39
2023-01-29T18:19:27.635Z,51.65
2023-01-29T18:24:30.057Z,52.68
2023-01-29T18:29:31.761Z,52.11
2023-01-29T18:34:33.453Z,52.88
2023-01-29T18:39:35.255Z,52.90
2023-01-29T18:44:36.929Z,53.20
2023-01-29T18:49:39.269Z,52.96
2023-01-29T18:54:40.897Z,52.94
2023-01-29T18:59:42.734Z,53.81
2023-01-29T19:04:46.907Z,54.58
2023-01-29T19:09:50.343Z,53.54
2023-01-29T19:14:51.939Z,52.92
2023-01-29T19:19:53.624Z,52.90
2023-01-29T19:24:55.314Z,54.08
2023-01-29T19:30:00.380Z,53.04
2023-01-29T19:35:02.175Z,54.20
2023-01-29T19:40:04.247Z,53.51
2023-01-29T19:45:06.431Z,53.48
2023-01-29T19:50:12.107Z,53.88
2023-01-29T19:55:13.806Z,53.22
2023-01-29T20:00:17.507Z,53.20
2023-01-29T20:05:20.401Z,53.77
2023-01-29T20:10:22.536Z,54.32
2023-01-29T20:15:24.201Z,52.94
2023-01-29T20:20:29.857Z,54.95
2023-01-29T20:25:35.663Z,54.48
2023-01-29T20:30:37.312Z,55.12
2023-01-29T20:35:39.252Z,54.85
2023-01-29T20:40:40.828Z,54.85
2023-01-29T20:45:42.659Z,55.46
2023-01-29T20:50:44.576Z,54.75
2023-01-29T20:55:46.249Z,55.83
2023-01-29T21:00:47.893Z,55.96
2023-01-29T21:05:50.343Z,55.18
2023-01-29T21:10:52.758Z,55.87
2023-01-29T21:15:54.386Z,54.49
2023-01-29T21:20:56.190Z,54.96
2023-01-29T21:26:02.631Z,54.89
2023-01-29T21:31:07.138Z,54.85
2023-01-29T21:36:10.173Z,55.41
2023-01-29T21:41:13.040Z,57.49
2023-01-29T21:46:16.172Z,56.52
2023-01-29T21:51:18.951Z,58.03
2023-01-29T21:56:20.731Z,55.43
2023-01-29T22:01:36.797Z,57.62
2023-01-29T22:06:39.905Z,57.54
2023-01-29T22:11:41.784Z,56.60
2023-01-29T22:16:43.652Z,56.16
2023-01-29T22:21:45.419Z,56.75
2023-01-29T22:26:48.655Z,56.47
2023-01-29T22:31:51.177Z,57.06
2023-01-29T22:36:52.811Z,57.18
2023-01-29T22:41:54.532Z,56.86
2023-01-29T22:46:56.161Z,57.44
2023-01-29T22:52:10.124Z,57.30
2023-01-29T22:57:14.160Z,57.29
2023-01-29T23:02:15.787Z,56.61
2023-01-29T23:07:17.392Z,57.79
2023-01-29T23:12:18.997Z,57.25
2023-01-29T23:17:20.596Z,57.09
2023-01-29T23:22:22.236Z,56.46
2023-01-29T23:27:24.121Z,57.59
2023-01-29T23:32:25.716Z,57.34
2023-01-29T23:37:27.473Z,56.30
2023-01-29T23:42:29.147Z,56.78
2023-01-29T23:47:30.712Z,56.71
2023-01-29T23:52:32.413Z,56.90
2023-01-29T23:57:34.005Z,56.29
